Time;durP1;ratioP1;P1;durP2;ratioP2;P2;SDS_P1;SDS_P2;PMS_P1;PMS_P2;Temp;Humidity;BMP_temperature;BMP_pressure;BME280_temperature;BME280_humidity;BME280_pressure;Samples;Min_cycle;Max_cycle;Signal;HPM_P1;HPM_P2
2022/12/05 00:01:59;;;;;;;8.38;4.07;;;2.40;99.90;;;;;;5055115;28;20051;-68
2022/12/05 00:04:24;;;;;;;6.68;3.78;;;2.50;99.90;;;;;;5056085;28;20037;-68
2022/12/05 00:06:50;;;;;;;5.03;3.25;;;2.60;99.90;;;;;;5055727;28;20087;-67
2022/12/05 00:09:16;;;;;;;4.35;3.13;;;2.60;99.90;;;;;;5056431;28;20047;-68
2022/12/05 00:11:44;;;;;;;5.35;3.58;;;2.60;99.90;;;;;;5056162;28;20040;-68
2022/12/05 00:14:11;;;;;;;7.95;3.38;;;2.60;99.90;;;;;;5057232;28;20111;-68
2022/12/05 00:16:38;;;;;;;6.32;3.90;;;2.60;99.90;;;;;;5070478;28;20091;-68
2022/12/05 00:19:06;;;;;;;5.40;3.25;;;2.70;99.90;;;;;;5052087;28;20048;-68
2022/12/05 00:21:34;;;;;;;6.63;3.50;;;2.70;99.90;;;;;;5052407;28;20519;-69
2022/12/05 00:24:02;;;;;;;5.03;3.13;;;2.70;99.90;;;;;;5054443;28;20042;-69
2022/12/05 00:26:29;;;;;;;5.38;3.58;;;2.70;99.90;;;;;;5059189;28;20060;-68
2022/12/05 00:28:56;;;;;;;5.53;3.50;;;2.60;99.90;;;;;;5075465;28;20087;-68
2022/12/05 00:31:23;;;;;;;5.70;3.08;;;2.70;99.90;;;;;;5073276;28;20128;-68
2022/12/05 00:33:50;;;;;;;5.60;3.55;;;2.70;99.90;;;;;;5061288;28;20032;-68
2022/12/05 00:36:21;;;;;;;6.93;3.65;;;2.70;99.90;;;;;;5056859;28;20136;-69
2022/12/05 00:38:48;;;;;;;6.63;3.78;;;2.70;99.90;;;;;;5068980;28;20047;-69
2022/12/05 00:41:16;;;;;;;5.50;3.13;;;2.70;99.90;;;;;;5061820;28;20033;-68
2022/12/05 00:43:42;;;;;;;7.60;4.22;;;2.70;99.90;;;;;;5075009;28;20064;-68
2022/12/05 00:46:11;;;;;;;9.27;4.50;;;2.70;99.90;;;;;;5073876;28;20076;-68
2022/12/05 00:48:37;;;;;;;23.55;10.85;;;2.70;99.90;;;;;;5054847;28;20033;-69
2022/12/05 00:51:10;;;;;;;8.35;4.95;;;2.70;99.90;;;;;;5053532;28;20049;-69
2022/12/05 00:53:36;;;;;;;11.80;5.60;;;2.60;99.90;;;;;;5054966;28;20037;-68
2022/12/05 00:56:08;;;;;;;7.85;4.57;;;2.50;99.90;;;;;;5054879;28;20052;-68
2022/12/05 00:58:34;;;;;;;10.35;5.35;;;2.50;99.90;;;;;;5071186;28;20044;-68
2022/12/05 01:01:12;;;;;;;8.55;4.80;;;2.50;99.90;;;;;;5054969;28;20530;-68
2022/12/05 01:03:38;;;;;;;7.60;4.55;;;2.50;99.90;;;;;;5055140;28;20036;-68
2022/12/05 01:06:09;;;;;;;8.05;4.63;;;2.50;99.90;;;;;;5065324;28;20051;-68
2022/12/05 01:08:35;;;;;;;11.23;5.40;;;2.40;99.90;;;;;;5035465;28;20033;-68
2022/12/05 01:11:03;;;;;;;12.35;6.00;;;2.20;99.90;;;;;;5041720;28;20045;-68
2022/12/05 01:13:29;;;;;;;11.30;5.68;;;1.80;99.90;;;;;;5054985;28;20048;-68
2022/12/05 01:15:56;;;;;;;10.10;5.40;;;1.60;99.90;;;;;;5055153;28;20454;-68
2022/12/05 01:18:22;;;;;;;22.10;9.13;;;1.60;99.90;;;;;;5054946;28;20063;-68
2022/12/05 01:20:48;;;;;;;13.60;6.72;;;1.80;99.90;;;;;;5053786;28;20072;-68
2022/12/05 01:23:15;;;;;;;17.92;7.15;;;1.70;99.90;;;;;;5055030;28;20440;-68
2022/12/05 01:25:42;;;;;;;13.10;5.55;;;1.80;99.90;;;;;;5054611;28;20040;-68
2022/12/05 01:28:08;;;;;;;11.93;6.13;;;2.00;99.90;;;;;;5053674;28;20091;-68
2022/12/05 01:30:38;;;;;;;10.23;5.30;;;2.10;99.90;;;;;;5054991;28;20106;-68
2022/12/05 01:33:05;;;;;;;9.80;5.68;;;2.20;99.90;;;;;;5054909;28;20041;-68
2022/12/05 01:35:35;;;;;;;8.63;4.97;;;2.10;99.90;;;;;;5054671;28;20407;-68
2022/12/05 01:38:01;;;;;;;19.92;9.45;;;2.00;99.90;;;;;;5066268;28;20040;-68
2022/12/05 01:40:27;;;;;;;20.75;9.10;;;2.00;99.90;;;;;;5074315;28;20380;-68
2022/12/05 01:42:53;;;;;;;17.95;8.00;;;1.90;99.90;;;;;;5074651;28;20052;-68
2022/12/05 01:45:36;;;;;;;17.65;8.27;;;1.80;99.90;;;;;;5074129;28;20487;-68
2022/12/05 01:48:09;;;;;;;14.45;7.18;;;1.80;99.90;;;;;;5059324;28;20045;-68
2022/12/05 01:50:36;;;;;;;30.38;12.50;;;1.90;99.90;;;;;;5054391;28;20033;-68
2022/12/05 01:53:02;;;;;;;15.88;7.18;;;2.00;99.90;;;;;;5052251;28;20534;-68
2022/12/05 01:55:28;;;;;;;11.15;5.45;;;2.10;99.90;;;;;;5054142;28;20051;-68
2022/12/05 01:57:56;;;;;;;9.98;5.18;;;2.20;99.90;;;;;;5067095;28;20033;-68
2022/12/05 02:00:22;;;;;;;13.20;5.85;;;2.20;99.90;;;;;;5071640;28;20040;-68
2022/12/05 02:03:01;;;;;;;12.73;5.80;;;2.30;99.90;;;;;;5073208;28;20097;-69
2022/12/05 02:05:30;;;;;;;14.48;5.68;;;2.30;99.90;;;;;;5073993;28;20087;-68
2022/12/05 02:07:58;;;;;;;12.77;6.85;;;2.20;99.90;;;;;;5060750;28;20025;-68
2022/12/05 02:10:26;;;;;;;13.52;6.85;;;1.90;99.90;;;;;;5065414;28;20090;-68
2022/12/05 02:12:52;;;;;;;21.73;8.45;;;1.70;99.90;;;;;;5058328;28;20029;-68
2022/12/05 02:15:28;;;;;;;24.83;9.00;;;1.50;99.90;;;;;;5053614;28;20450;-68
2022/12/05 02:18:15;;;;;;;20.90;8.25;;;1.50;99.90;;;;;;5053478;28;20484;-68
2022/12/05 02:21:02;;;;;;;16.48;7.05;;;1.60;99.90;;;;;;5053703;28;20489;-69
2022/12/05 02:23:47;;;;;;;14.57;6.32;;;1.70;99.90;;;;;;5054874;28;20499;-69
2022/12/05 02:26:29;;;;;;;15.18;6.45;;;1.80;99.90;;;;;;5053720;28;20543;-68
2022/12/05 02:29:14;;;;;;;17.00;7.35;;;1.70;99.90;;;;;;5058942;28;20040;-68
2022/12/05 02:32:24;;;;;;;10.95;5.88;;;1.80;99.90;;;;;;5073414;28;20032;-68
2022/12/05 02:35:01;;;;;;;12.00;6.13;;;1.90;99.90;;;;;;5063112;28;20037;-68
2022/12/05 02:38:04;;;;;;;14.82;6.43;;;2.00;99.90;;;;;;5066157;28;20396;-68
2022/12/05 02:40:36;;;;;;;14.57;7.47;;;2.00;99.90;;;;;;5046811;28;20393;-68
2022/12/05 02:43:41;;;;;;;7.63;4.32;;;2.00;99.90;;;;;;5053768;28;20052;-68
2022/12/05 02:46:20;;;;;;;7.82;4.00;;;2.00;99.90;;;;;;5053792;28;20132;-68
2022/12/05 02:48:49;;;;;;;10.02;4.93;;;2.10;99.90;;;;;;5071674;28;20123;-68
2022/12/05 02:51:19;;;;;;;7.35;4.15;;;2.20;99.90;;;;;;5073478;28;20498;-68
2022/12/05 02:53:47;;;;;;;;;;;2.30;99.90;;;;;;5073942;28;20036;-67
2022/12/05 02:56:14;;;;;;;7.43;4.13;;;2.10;99.90;;;;;;5073012;28;19966;-68
2022/12/05 02:58:51;;;;;;;10.98;6.28;;;2.10;99.90;;;;;;5058525;28;20052;-68
2022/12/05 03:01:20;;;;;;;10.88;6.35;;;1.80;99.90;;;;;;5054625;28;20051;-68
2022/12/05 03:03:46;;;;;;;12.40;5.82;;;1.50;99.90;;;;;;5054345;28;20037;-67
2022/12/05 03:06:31;;;;;;;11.52;5.68;;;1.50;99.90;;;;;;5057597;28;20124;-68
2022/12/05 03:09:07;;;;;;;11.80;5.75;;;1.60;99.90;;;;;;5073423;28;20590;-68
2022/12/05 03:11:49;;;;;;;9.27;4.97;;;1.70;99.90;;;;;;5074428;28;20044;-67
2022/12/05 03:14:24;;;;;;;9.48;4.80;;;1.70;99.90;;;;;;5077003;28;20064;-69
2022/12/05 03:16:57;;;;;;;7.28;4.45;;;1.80;99.90;;;;;;5077211;28;20083;-67
2022/12/05 03:19:22;;;;;;;8.48;4.78;;;1.80;99.90;;;;;;5057571;28;20029;-68
2022/12/05 03:22:07;;;;;;;10.85;5.05;;;1.80;99.90;;;;;;5057244;28;20048;-68
2022/12/05 03:24:39;;;;;;;8.13;4.97;;;1.70;99.90;;;;;;5057043;28;20065;-67
2022/12/05 03:27:14;;;;;;;8.60;5.00;;;1.70;99.90;;;;;;5056909;28;20033;-67
2022/12/05 03:29:56;;;;;;;9.30;5.60;;;1.60;99.90;;;;;;5042199;28;20488;-67
2022/12/05 03:32:39;;;;;;;10.63;5.07;;;1.60;99.90;;;;;;5057016;28;20033;-69
2022/12/05 03:35:22;;;;;;;9.80;5.00;;;1.60;99.90;;;;;;5057121;28;20044;-68
2022/12/05 03:38:00;;;;;;;7.93;4.10;;;1.70;99.90;;;;;;5076854;28;20044;-68
2022/12/05 03:40:47;;;;;;;9.90;5.00;;;1.70;99.90;;;;;;5068103;28;20037;-67
2022/12/05 03:43:17;;;;;;;8.98;5.32;;;1.90;99.90;;;;;;5056512;28;20036;-68
2022/12/05 03:45:55;;;;;;;8.80;4.90;;;1.80;99.90;;;;;;5056531;28;20431;-68
2022/12/05 03:48:26;;;;;;;9.00;4.65;;;1.60;99.90;;;;;;5055345;28;20044;-67
2022/12/05 03:50:55;;;;;;;8.90;4.80;;;1.50;99.90;;;;;;5056644;28;20037;-67
2022/12/05 03:53:28;;;;;;;8.98;5.00;;;1.40;99.90;;;;;;5055276;28;20040;-69
2022/12/05 03:56:04;;;;;;;9.40;5.28;;;1.50;99.90;;;;;;5056519;28;20055;-67
2022/12/05 03:58:45;;;;;;;9.75;5.25;;;1.30;99.90;;;;;;5056439;28;20041;-67
2022/12/05 04:01:12;;;;;;;;;;;1.40;99.90;;;;;;5057060;28;20041;-69
2022/12/05 04:03:50;;;;;;;7.10;4.75;;;1.30;99.90;;;;;;5056544;28;19991;-70
2022/12/05 04:06:28;;;;;;;9.52;5.30;;;1.40;99.90;;;;;;5056517;28;20037;-67
2022/12/05 04:09:01;;;;;;;8.25;4.57;;;1.50;99.90;;;;;;5056505;28;20032;-68
2022/12/05 04:11:31;;;;;;;9.90;5.05;;;1.40;99.90;;;;;;5057097;28;20053;-67
2022/12/05 04:14:05;;;;;;;9.52;4.88;;;1.40;99.90;;;;;;5054653;28;20487;-67
2022/12/05 04:22:33;;;;;;;8.27;4.82;;;1.20;99.90;;;;;;5065456;28;20047;-67
2022/12/05 04:27:49;;;;;;;8.32;4.25;;;1.10;99.90;;;;;;5047921;28;20162;-68
2022/12/05 04:30:21;;;;;;;10.25;4.88;;;1.20;99.90;;;;;;5054049;28;20044;-67
2022/12/05 04:33:03;;;;;;;7.38;4.25;;;1.20;99.90;;;;;;5068211;28;20051;-68
2022/12/05 04:35:39;;;;;;;7.50;3.97;;;1.20;99.90;;;;;;5075621;28;20154;-68
2022/12/05 04:38:20;;;;;;;5.82;3.80;;;1.20;99.90;;;;;;5076010;28;20044;-68
2022/12/05 04:41:02;;;;;;;12.25;4.22;;;1.30;99.90;;;;;;5064251;28;20045;-67
2022/12/05 04:43:32;;;;;;;8.95;4.55;;;1.30;99.90;;;;;;5061926;28;20431;-68
2022/12/05 04:46:01;;;;;;;8.13;4.45;;;1.20;99.90;;;;;;5073789;28;20177;-68
2022/12/05 04:48:28;;;;;;;7.68;4.13;;;1.30;99.90;;;;;;5075169;28;20025;-69
2022/12/05 04:50:56;;;;;;;11.05;4.95;;;1.30;99.90;;;;;;5072394;28;20036;-68
2022/12/05 04:53:26;;;;;;;4.43;2.88;;;1.30;99.90;;;;;;5035596;28;20033;-68
2022/12/05 04:55:55;;;;;;;5.20;3.05;;;1.40;99.90;;;;;;5051183;28;20114;-69
2022/12/05 04:58:23;;;;;;;4.18;2.92;;;1.40;99.90;;;;;;5056212;28;20040;-69
2022/12/05 05:01:11;;;;;;;4.55;2.78;;;1.50;99.90;;;;;;5055371;28;20068;-68
2022/12/05 05:03:44;;;;;;;5.40;3.10;;;1.50;99.90;;;;;;5073861;28;20457;-69
2022/12/05 05:06:11;;;;;;;4.93;2.88;;;1.50;99.90;;;;;;5060211;28;20095;-67
2022/12/05 05:08:47;;;;;;;5.10;2.75;;;1.60;99.90;;;;;;5055268;28;20063;-68
2022/12/05 05:11:25;;;;;;;5.90;3.47;;;1.60;99.90;;;;;;5054965;28;20051;-68
2022/12/05 05:13:51;;;;;;;4.72;2.40;;;1.60;99.90;;;;;;5053387;28;20420;-68
2022/12/05 05:16:21;;;;;;;4.47;2.65;;;1.60;99.90;;;;;;5055097;28;20511;-68
2022/12/05 05:18:48;;;;;;;5.22;2.50;;;1.60;99.90;;;;;;5053940;28;20064;-69
2022/12/05 05:21:21;;;;;;;5.35;2.58;;;1.60;99.90;;;;;;5054711;28;20051;-68
2022/12/05 05:23:47;;;;;;;4.07;2.80;;;1.70;99.90;;;;;;5073441;28;20426;-68
2022/12/05 05:26:13;;;;;;;4.68;3.05;;;1.70;99.90;;;;;;5068373;28;20050;-69
2022/12/05 05:28:39;;;;;;;3.95;2.30;;;1.60;99.90;;;;;;5074062;28;20060;-67
2022/12/05 05:31:06;;;;;;;4.63;2.45;;;1.60;99.90;;;;;;5074562;28;20044;-69
2022/12/05 05:33:32;;;;;;;4.45;2.75;;;1.60;99.90;;;;;;5057569;28;20086;-68
2022/12/05 05:36:10;;;;;;;4.63;2.60;;;1.60;99.90;;;;;;5054665;28;20454;-68
2022/12/05 05:38:37;;;;;;;7.70;3.33;;;1.60;99.90;;;;;;5059006;28;20036;-69
2022/12/05 05:41:04;;;;;;;3.88;2.22;;;1.60;99.90;;;;;;5070663;28;20538;-68
2022/12/05 05:43:31;;;;;;;3.92;2.60;;;1.50;99.90;;;;;;5055413;28;20037;-68
2022/12/05 05:45:57;;;;;;;3.40;2.30;;;1.50;99.90;;;;;;5072101;28;20435;-68
2022/12/05 05:48:22;;;;;;;6.18;2.72;;;1.50;99.90;;;;;;5074179;28;20115;-67
2022/12/05 05:50:48;;;;;;;4.78;2.88;;;1.50;99.90;;;;;;5073767;28;20064;-68
2022/12/05 05:53:14;;;;;;;6.38;3.45;;;1.40;99.90;;;;;;5061155;28;20041;-68
2022/12/05 05:55:41;;;;;;;4.30;2.60;;;1.40;99.90;;;;;;5054027;28;20139;-67
2022/12/05 05:58:07;;;;;;;4.78;2.70;;;1.60;99.90;;;;;;5054134;28;20049;-68
2022/12/05 06:00:33;;;;;;;7.22;4.07;;;1.70;99.90;;;;;;5067383;28;20048;-68
2022/12/05 06:02:59;;;;;;;5.88;3.63;;;1.50;99.90;;;;;;5056376;28;20039;-69
2022/12/05 06:05:25;;;;;;;4.43;2.88;;;1.40;99.90;;;;;;5053345;28;20045;-67
2022/12/05 06:07:52;;;;;;;4.93;2.60;;;1.40;99.90;;;;;;5053689;28;20546;-68
2022/12/05 06:10:18;;;;;;;4.30;2.70;;;1.40;99.90;;;;;;5069950;28;20033;-69
2022/12/05 06:12:44;;;;;;;4.00;2.50;;;1.40;99.90;;;;;;5059432;28;20059;-68
2022/12/05 06:15:10;;;;;;;3.88;2.38;;;1.40;99.90;;;;;;5053622;28;20033;-68
2022/12/05 06:17:36;;;;;;;3.55;1.85;;;1.40;99.90;;;;;;5053595;28;20045;-68
2022/12/05 06:20:02;;;;;;;4.15;2.40;;;1.50;99.90;;;;;;5053207;28;20086;-69
2022/12/05 06:22:29;;;;;;;5.13;3.17;;;1.60;99.90;;;;;;5053241;28;20036;-69
2022/12/05 06:24:54;;;;;;;5.03;2.85;;;1.60;99.90;;;;;;5053320;28;20075;-69
2022/12/05 06:27:20;;;;;;;4.13;2.53;;;1.50;99.90;;;;;;5052106;28;20060;-68
2022/12/05 06:29:46;;;;;;;3.20;2.28;;;1.40;99.90;;;;;;5061997;28;20495;-69
2022/12/05 06:32:12;;;;;;;3.42;2.15;;;1.40;99.90;;;;;;5066388;28;20033;-69
2022/12/05 06:34:37;;;;;;;4.13;2.10;;;1.40;99.90;;;;;;5063745;28;20040;-68
2022/12/05 06:37:03;;;;;;;4.28;2.22;;;1.50;99.90;;;;;;5069920;28;20080;-68
2022/12/05 06:39:29;;;;;;;3.63;2.08;;;1.60;99.90;;;;;;5054782;28;20538;-68
2022/12/05 06:41:55;;;;;;;3.80;2.38;;;1.60;99.90;;;;;;5070975;28;20048;-68
2022/12/05 06:44:21;;;;;;;4.97;2.83;;;1.70;99.90;;;;;;5061099;28;20502;-68
2022/12/05 06:46:47;;;;;;;5.75;3.38;;;1.60;99.90;;;;;;5053581;28;20045;-68
2022/12/05 06:49:13;;;;;;;4.97;3.35;;;1.60;99.90;;;;;;5059582;28;21127;-68
2022/12/05 06:51:39;;;;;;;6.07;3.03;;;1.70;99.90;;;;;;5053371;28;20047;-68
2022/12/05 06:54:05;;;;;;;4.72;2.78;;;1.60;99.90;;;;;;5067129;28;20458;-67
2022/12/05 06:56:31;;;;;;;2.75;2.10;;;1.50;99.90;;;;;;5057241;28;20053;-68
2022/12/05 06:58:57;;;;;;;4.65;2.45;;;1.30;99.90;;;;;;5070556;28;20067;-67
2022/12/05 07:01:42;;;;;;;7.53;4.00;;;1.30;99.90;;;;;;5070632;28;20051;-68
2022/12/05 07:04:14;;;;;;;4.68;2.60;;;1.30;99.90;;;;;;5069836;28;20045;-67
2022/12/05 07:06:42;;;;;;;4.88;2.63;;;1.30;99.90;;;;;;5057901;28;20044;-68
2022/12/05 07:09:09;;;;;;;5.22;2.67;;;1.20;99.90;;;;;;5067760;28;20095;-68
2022/12/05 07:11:35;;;;;;;6.05;3.22;;;1.20;99.90;;;;;;5069262;28;20441;-67
2022/12/05 07:14:03;;;;;;;6.55;3.42;;;1.30;99.90;;;;;;5050829;28;20043;-68
2022/12/05 07:16:29;;;;;;;11.60;4.13;;;1.80;99.90;;;;;;5051367;28;20152;-68
2022/12/05 07:18:56;;;;;;;13.98;5.93;;;2.40;99.90;;;;;;5052166;28;20065;-68
2022/12/05 07:21:22;;;;;;;15.40;6.75;;;3.10;99.90;;;;;;5051268;28;20049;-67
2022/12/05 07:23:51;;;;;;;14.23;7.15;;;2.00;99.90;;;;;;5053301;28;20044;-68
2022/12/05 07:26:20;;;;;;;17.23;7.72;;;1.60;99.90;;;;;;5053590;28;20037;-68
2022/12/05 07:28:47;;;;;;;22.27;10.02;;;1.50;99.90;;;;;;5053349;28;20040;-67
2022/12/05 07:31:20;;;;;;;17.80;8.73;;;1.50;99.90;;;;;;5053332;28;20618;-70
2022/12/05 07:33:46;;;;;;;11.40;6.00;;;1.70;99.90;;;;;;5052811;28;20036;-69
2022/12/05 07:36:15;;;;;;;9.05;4.93;;;1.80;99.90;;;;;;5052939;28;20045;-68
2022/12/05 07:38:42;;;;;;;6.15;3.28;;;1.90;99.90;;;;;;5053416;28;20060;-72
2022/12/05 07:41:18;;;;;;;6.30;3.03;;;1.90;99.90;;;;;;5053100;28;20048;-67
2022/12/05 07:43:44;;;;;;;4.28;2.35;;;2.00;99.90;;;;;;5053044;28;20516;-68
2022/12/05 07:46:10;;;;;;;6.32;2.83;;;2.00;99.90;;;;;;5053081;28;20127;-69
2022/12/05 07:48:36;;;;;;;3.90;2.45;;;2.00;99.90;;;;;;5051956;28;20099;-68
2022/12/05 07:51:04;;;;;;;4.03;2.28;;;2.00;99.90;;;;;;5054550;28;20432;-69
2022/12/05 07:53:31;;;;;;;4.45;2.47;;;2.20;99.90;;;;;;5057042;28;20040;-69
2022/12/05 07:56:01;;;;;;;6.00;3.40;;;2.50;99.90;;;;;;5056788;28;20135;-67
2022/12/05 07:58:28;;;;;;;7.70;4.13;;;2.40;99.90;;;;;;5056701;28;20064;-68
2022/12/05 08:00:54;;;;;;;9.07;4.75;;;2.60;99.90;;;;;;5056890;28;20044;-68
2022/12/05 08:03:20;;;;;;;16.13;6.90;;;2.70;99.90;;;;;;5055408;28;20400;-69
2022/12/05 08:05:46;;;;;;;17.08;8.20;;;2.80;99.90;;;;;;5056701;28;20033;-71
2022/12/05 08:08:12;;;;;;;10.60;6.57;;;2.40;99.90;;;;;;5056716;28;20048;-68
2022/12/05 08:10:37;;;;;;;9.70;5.43;;;2.20;99.90;;;;;;5056537;28;20079;-68
2022/12/05 08:13:03;;;;;;;7.78;4.93;;;2.10;99.90;;;;;;5056461;28;20056;-69
2022/12/05 08:15:29;;;;;;;5.22;3.50;;;2.10;99.90;;;;;;5056279;28;20043;-71
2022/12/05 08:17:55;;;;;;;5.90;3.22;;;2.20;99.90;;;;;;5054988;28;20057;-68
2022/12/05 08:20:21;;;;;;;5.97;3.63;;;2.20;99.90;;;;;;5055073;28;20036;-70
2022/12/05 08:22:46;;;;;;;6.07;3.85;;;2.30;99.90;;;;;;5055051;28;20378;-68
2022/12/05 08:25:12;;;;;;;6.68;4.35;;;2.30;99.90;;;;;;5056288;28;20044;-71
2022/12/05 08:27:38;;;;;;;5.50;3.45;;;2.50;99.90;;;;;;5053176;28;20048;-70
2022/12/05 08:30:05;;;;;;;3.90;2.58;;;2.80;99.90;;;;;;5041680;28;20030;-72
2022/12/05 08:32:30;;;;;;;4.38;2.83;;;3.10;99.90;;;;;;5033826;28;20037;-70
2022/12/05 08:34:56;;;;;;;7.75;4.38;;;3.30;99.90;;;;;;5035280;28;20447;-68
2022/12/05 08:37:22;;;;;;;7.90;4.60;;;2.90;99.90;;;;;;5036129;28;20045;-71
2022/12/05 08:39:48;;;;;;;8.82;4.97;;;2.60;99.90;;;;;;5036105;28;20033;-70
2022/12/05 08:42:13;;;;;;;8.05;4.70;;;2.60;99.90;;;;;;5035967;28;20044;-70
2022/12/05 08:44:39;;;;;;;10.13;6.03;;;2.60;99.90;;;;;;5034706;28;20037;-71
2022/12/05 08:47:05;;;;;;;9.43;5.55;;;2.60;99.90;;;;;;5067945;28;20060;-69
2022/12/05 08:49:31;;;;;;;8.10;4.70;;;2.80;99.90;;;;;;5035966;28;20113;-69
2022/12/05 08:51:57;;;;;;;5.97;3.65;;;2.80;99.90;;;;;;5035726;28;20064;-69
2022/12/05 08:54:22;;;;;;;5.05;3.35;;;2.90;99.90;;;;;;5035777;28;20052;-72
2022/12/05 08:56:51;;;;;;;5.38;3.47;;;3.40;99.90;;;;;;5035507;28;20064;-70
2022/12/05 08:59:18;;;;;;;4.88;2.90;;;3.50;99.90;;;;;;5035760;28;20033;-71
2022/12/05 09:01:44;;;;;;;3.65;2.60;;;3.70;99.90;;;;;;5035056;28;20045;-71
2022/12/05 09:04:11;;;;;;;4.63;2.67;;;3.60;99.90;;;;;;5035507;28;20476;-70
2022/12/05 09:06:38;;;;;;;3.58;2.30;;;3.80;99.90;;;;;;5034429;28;20085;-69
2022/12/05 09:09:06;;;;;;;4.22;1.90;;;3.90;99.90;;;;;;5035278;28;20080;-68
2022/12/05 09:11:35;;;;;;;3.22;1.90;;;4.40;99.90;;;;;;5037166;28;20041;-69
2022/12/05 09:14:01;;;;;;;5.72;2.00;;;4.40;99.90;;;;;;5055097;28;20037;-69
2022/12/05 09:16:29;;;;;;;4.10;2.05;;;4.50;99.90;;;;;;5053803;28;20049;-68
2022/12/05 09:18:56;;;;;;;3.38;2.00;;;4.40;99.90;;;;;;5055104;28;20079;-68
2022/12/05 09:21:27;;;;;;;5.05;1.92;;;4.40;99.90;;;;;;5054996;28;20043;-70
2022/12/05 09:23:53;;;;;;;2.90;1.80;;;4.50;99.90;;;;;;5054937;28;20056;-71
2022/12/05 09:26:23;;;;;;;4.55;2.83;;;4.80;99.90;;;;;;5055224;28;20087;-71
2022/12/05 09:28:49;;;;;;;2.97;2.15;;;4.90;99.90;;;;;;5055179;28;20045;-69
2022/12/05 09:31:18;;;;;;;5.43;2.97;;;4.90;99.90;;;;;;5054889;28;20048;-69
2022/12/05 09:33:45;;;;;;;8.32;4.57;;;4.90;99.90;;;;;;5053546;28;20044;-70
2022/12/05 09:36:20;;;;;;;10.35;5.60;;;5.00;99.90;;;;;;5054602;28;20045;-69
2022/12/05 09:38:46;;;;;;;9.70;5.95;;;5.30;99.90;;;;;;5054801;28;20036;-70
2022/12/05 09:42:07;;;;;;;19.10;9.13;;;5.40;99.90;;;;;;5054695;28;20041;-69
2022/12/05 09:44:39;;;;;;;9.50;6.10;;;5.70;99.90;;;;;;5053212;28;20041;-71
2022/12/05 09:47:26;;;;;;;52.50;19.58;;;5.70;99.90;;;;;;5054553;28;20531;-69
2022/12/05 09:49:58;;;;;;;14.93;8.40;;;5.60;99.90;;;;;;5054688;28;20069;-70
2022/12/05 09:52:32;;;;;;;6.32;3.83;;;5.70;99.90;;;;;;5054535;28;20040;-69
2022/12/05 09:55:05;;;;;;;8.68;4.82;;;5.80;99.90;;;;;;5054330;28;20510;-70
2022/12/05 09:57:37;;;;;;;6.80;3.90;;;5.80;99.90;;;;;;5054388;28;20102;-69
2022/12/05 10:00:05;;;;;;;7.32;3.90;;;5.80;99.90;;;;;;5054488;28;20037;-69
2022/12/05 10:02:48;;;;;;;12.07;6.40;;;6.20;99.90;;;;;;5053144;28;20037;-70
2022/12/05 10:05:42;;;;;;;9.27;5.22;;;6.50;99.90;;;;;;5053088;28;20431;-69
2022/12/05 10:08:31;;;;;;;7.07;4.28;;;6.50;99.90;;;;;;5054454;28;20408;-69
2022/12/05 10:11:06;;;;;;;9.77;5.75;;;6.40;99.90;;;;;;5054512;28;20473;-70
2022/12/05 10:13:55;;;;;;;8.45;5.18;;;6.30;99.90;;;;;;5053732;28;20370;-70
2022/12/05 10:16:33;;;;;;;6.65;3.95;;;6.40;99.90;;;;;;5054020;28;20045;-70
2022/12/05 10:19:13;;;;;;;3.55;2.47;;;6.30;99.90;;;;;;5053590;28;20064;-71
2022/12/05 10:21:44;;;;;;;4.60;2.70;;;6.20;99.90;;;;;;5054188;28;20037;-70
2022/12/05 10:24:35;;;;;;;4.82;2.58;;;6.10;99.90;;;;;;5052718;28;20064;-70
2022/12/05 10:27:07;;;;;;;5.90;3.22;;;6.20;99.90;;;;;;5051331;28;20119;-71
2022/12/05 10:29:44;;;;;;;3.88;2.80;;;6.40;99.90;;;;;;5050806;28;20032;-69
2022/12/05 10:32:31;;;;;;;3.83;2.42;;;6.20;99.90;;;;;;5052899;28;20072;-69
2022/12/05 10:35:13;;;;;;;4.15;2.80;;;6.60;99.90;;;;;;5053048;28;20036;-69
2022/12/05 10:37:47;;;;;;;4.35;2.85;;;6.10;99.90;;;;;;5054097;28;20202;-69
2022/12/05 10:40:13;;;;;;;4.45;3.15;;;5.80;99.90;;;;;;5053971;28;20033;-70
2022/12/05 10:42:39;;;;;;;4.68;3.00;;;5.90;99.90;;;;;;5052676;28;20033;-69
2022/12/05 10:45:13;;;;;;;4.22;2.30;;;6.00;99.90;;;;;;5053756;28;20047;-69
2022/12/05 10:47:39;;;;;;;5.32;2.90;;;6.30;99.90;;;;;;5053883;28;20036;-71
2022/12/05 10:50:19;;;;;;;4.45;2.90;;;6.60;99.90;;;;;;5053998;28;20043;-70
2022/12/05 10:52:46;;;;;;;3.87;2.63;;;6.70;99.90;;;;;;5053922;28;20127;-70
2022/12/05 10:55:15;;;;;;;4.72;2.75;;;6.50;99.90;;;;;;5053675;28;20279;-69
2022/12/05 10:57:41;;;;;;;4.78;2.80;;;6.70;99.90;;;;;;5053665;28;20052;-70
2022/12/05 11:00:14;;;;;;;2.72;2.10;;;6.80;99.90;;;;;;5053791;28;20033;-69
2022/12/05 11:02:40;;;;;;;3.00;1.90;;;6.60;99.90;;;;;;5052435;28;20057;-70
2022/12/05 11:05:07;;;;;;;3.58;2.33;;;6.90;99.90;;;;;;5053603;28;20558;-69
2022/12/05 11:07:44;;;;;;;2.42;1.80;;;7.10;99.90;;;;;;5053538;28;20033;-70
2022/12/05 11:10:33;;;;;;;3.03;2.13;;;7.20;99.90;;;;;;5052369;28;20053;-69
2022/12/05 11:13:00;;;;;;;4.75;2.30;;;7.30;99.90;;;;;;5053551;28;20041;-69
2022/12/05 11:15:28;;;;;;;3.83;2.25;;;7.40;99.90;;;;;;5053466;28;20040;-70
2022/12/05 11:17:56;;;;;;;3.63;2.13;;;7.00;99.90;;;;;;5053454;28;20408;-70
2022/12/05 11:20:22;;;;;;;3.55;1.95;;;6.90;99.90;;;;;;5053361;28;20041;-68
2022/12/05 11:22:52;;;;;;;8.65;4.90;;;7.10;99.90;;;;;;5052204;28;20553;-69
2022/12/05 11:25:27;;;;;;;;;;;7.30;99.90;;;;;;5055578;28;20044;-69
2022/12/05 11:27:54;;;;;;;14.13;8.35;;;7.40;99.90;;;;;;5057319;28;20379;-70
2022/12/05 11:30:23;;;;;;;10.20;6.25;;;7.60;99.90;;;;;;5057331;28;20033;-69
2022/12/05 11:32:50;;;;;;;7.95;4.05;;;7.80;99.90;;;;;;5057519;28;20484;-69
2022/12/05 11:35:24;;;;;;;4.43;2.85;;;7.60;99.90;;;;;;5057144;28;20127;-71
2022/12/05 11:38:02;;;;;;;2.88;2.10;;;7.50;99.90;;;;;;5057267;28;20529;-69
2022/12/05 11:40:34;;;;;;;3.47;2.08;;;7.70;99.90;;;;;;5057158;28;20037;-69
2022/12/05 11:43:30;;;;;;;2.72;1.92;;;7.70;99.90;;;;;;5057111;28;20040;-70
2022/12/05 11:46:18;;;;;;;2.00;1.52;;;7.70;99.90;;;;;;5057120;28;20040;-69
2022/12/05 11:49:26;;;;;;;2.47;1.45;;;7.80;99.90;;;;;;5057037;28;20037;-69
2022/12/05 11:52:25;;;;;;;5.07;4.47;;;8.10;99.90;;;;;;5056935;28;20500;-69
2022/12/05 11:55:06;;;;;;;4.05;2.60;;;8.00;99.90;;;;;;5056868;28;20127;-69
2022/12/05 11:57:53;;;;;;;2.13;1.27;;;8.20;99.90;;;;;;5056651;28;20052;-68
2022/12/05 12:00:50;;;;;;;2.38;1.30;;;8.20;99.90;;;;;;5056601;28;20075;-69
2022/12/05 12:03:37;;;;;;;3.75;1.73;;;8.10;99.90;;;;;;5056035;28;20041;-69
2022/12/05 12:06:31;;;;;;;3.05;1.65;;;7.90;99.90;;;;;;5056663;28;20045;-70
2022/12/05 12:09:15;;;;;;;4.13;2.40;;;7.90;99.90;;;;;;5056730;28;20044;-68
2022/12/05 12:12:05;;;;;;;4.65;2.70;;;8.00;99.90;;;;;;5055162;28;20051;-69
2022/12/05 12:14:36;;;;;;;3.47;2.78;;;7.90;99.90;;;;;;5054931;28;20083;-68
2022/12/05 12:17:15;;;;;;;2.28;1.80;;;7.90;99.90;;;;;;5056531;28;20459;-69
2022/12/05 12:19:51;;;;;;;1.85;1.40;;;7.90;99.90;;;;;;5056302;28;20032;-71
2022/12/05 12:23:03;;;;;;;4.13;2.75;;;8.10;99.90;;;;;;5056169;28;20055;-71
2022/12/05 12:25:49;;;;;;;3.10;1.85;;;8.00;99.90;;;;;;5056061;28;20481;-70
2022/12/05 12:28:24;;;;;;;3.30;2.40;;;7.90;99.90;;;;;;5056117;28;20550;-68
2022/12/05 12:30:56;;;;;;;4.90;3.10;;;7.90;99.90;;;;;;5055953;28;20037;-70
2022/12/05 12:33:33;;;;;;;2.88;2.08;;;7.80;99.90;;;;;;5052656;28;20055;-71
2022/12/05 12:36:09;;;;;;;5.00;1.80;;;7.90;99.90;;;;;;5033506;28;20041;-69
2022/12/05 12:39:11;;;;;;;3.58;1.80;;;7.90;99.90;;;;;;5034514;28;20523;-69
2022/12/05 12:42:19;;;;;;;2.72;1.65;;;7.90;99.90;;;;;;5035855;28;20048;-69
2022/12/05 12:45:04;;;;;;;3.65;1.95;;;7.60;99.90;;;;;;5035998;28;20048;-69
2022/12/05 12:47:42;;;;;;;6.13;3.28;;;;;;;;;;5034658;28;20084;-71
2022/12/05 12:50:33;;;;;;;3.40;2.40;;;7.50;99.90;;;;;;5035743;28;20443;-68
2022/12/05 12:53:26;;;;;;;3.38;2.15;;;7.70;99.90;;;;;;5035970;28;20044;-69
2022/12/05 12:55:59;;;;;;;4.50;2.67;;;7.80;99.90;;;;;;5035831;28;20093;-69
2022/12/05 12:58:50;;;;;;;9.07;4.75;;;7.60;99.90;;;;;;5035677;28;20040;-69
2022/12/05 13:01:31;;;;;;;;;;;7.40;99.90;;;;;;5036039;28;20123;-69
2022/12/05 13:04:11;;;;;;;2.83;2.10;;;7.40;99.90;;;;;;5035579;28;19912;-68
2022/12/05 13:06:41;;;;;;;5.00;2.90;;;7.50;99.90;;;;;;5035432;28;20765;-70
2022/12/05 13:09:20;;;;;;;2.40;1.70;;;7.30;99.90;;;;;;5035630;28;20079;-68
2022/12/05 13:11:48;;;;;;;3.05;2.03;;;7.30;99.90;;;;;;5035470;28;20113;-69
2022/12/05 13:14:19;;;;;;;4.63;2.42;;;7.30;99.90;;;;;;5035309;28;20081;-68
2022/12/05 13:16:51;;;;;;;3.88;2.65;;;7.20;99.90;;;;;;5051058;28;20048;-71
2022/12/05 13:19:45;;;;;;;4.05;2.40;;;7.20;99.90;;;;;;5055270;28;20025;-69
2022/12/05 13:22:12;;;;;;;5.63;3.30;;;7.10;99.90;;;;;;5055240;28;20071;-69
2022/12/05 13:24:38;;;;;;;7.05;3.65;;;7.20;99.90;;;;;;5055272;28;20048;-68
2022/12/05 13:27:06;;;;;;;8.05;4.43;;;7.30;99.90;;;;;;5055227;28;20408;-69
2022/12/05 13:29:34;;;;;;;7.53;4.60;;;7.20;99.90;;;;;;5053577;28;20086;-71
2022/12/05 13:32:05;;;;;;;7.20;3.42;;;7.20;99.90;;;;;;5054974;28;20114;-68